Ashland, OR

5:56 AM PDT on September 16, 2014 (GMT -0700)
Tolman Creek Mountain | Change Station
CLOSE
Current Station
Personal Weather Station
Location: Ashland, OR
Elevation: 2884 ft
Nearby Weather Stations

Elev 2884 ft 42.16 °N, 122.67 °W | Updated 5 minutes ago

Clear
Clear
56.3 °F
Feels Like 56.3 °F
N
0.0
Wind Variable Wind from ESE

Today
High -- | Low -- °F
--% Chance of Precip.
Yesterday
High -- | Low -- °F
Precip. -- in
6:51 AM 7:18 PM
Last Quarter, 46% visible
Pressure 29.86 in
Visibility 10.0 miles
Clouds Clear
Dew Point 40 °F
Humidity 55%
Rainfall 0.00 in
Snow Depth 0 in , 0 in , 0 in
UV 0 out of 12
Pollen 4.20 out of 12
Air Quality Not available.
Flu Activity Not available.
METAR KMFR 161153Z AUTO 20003KT 10SM CLR 15/08 A2989 RMK AO2 SLP110 T01500078 10233 20144 51004

More Conditions Fewer Conditions

Pressure 29.86 in
Visibility 10.0 miles
Clouds Clear
Dew Point 40 °F
Humidity 55%
Rainfall 0.00 in
Snow Depth 0 in , 0 in , 0 in
UV 0 out of 12
Pollen 4.20 out of 12
Air Quality Not available.
Flu Activity Not available.
METAR KMFR 161153Z AUTO 20003KT 10SM CLR 15/08 A2989 RMK AO2 SLP110 T01500078 10233 20144 51004

More Conditions Fewer Conditions

10-Day Weather Forecast

Almanac

Astronomy

Sep. 16, 2014 Rise Set
Actual Time 6:51 AM PDT 7:18 PM PDT
Civil Twilight 6:23 AM PDT 7:46 PM PDT
Nautical Twilight 5:50 AM PDT 8:19 PM PDT
Astronomical Twilight 5:16 AM PDT 8:53 PM PDT
Moon 12:01 AM PDT 2:50 PM PDT
Length of Visible Light 13h 22m
Length of Day
12h 26m
Tomorrow will be 2m 49s shorter.
Last Quarter, 46% of the Moon is Illuminated
Today
Last Quarter
Sep 24
New
Oct 1
First Quarter
Oct 8
Full
Oct 15
Last Quarter

Today's Extremes

State Highs State Lows

Community

WunderPhotos

Upload Photos

1,753,756 photos uploaded!

Nearby

Snow Depth

Station Depth Elevation
Cascade Summit 0 in 4880 ft
New Crescent Lake 0 in 4800 ft
Cold Springs Camp 0 in 6100 ft
Gold Center 0 in 5340 ft
Salt Creek Falls 0 in 4000 ft

Earthquake Activity

City Distance Mag. Time & Date
No recent earthquake activity has been reported nearby.
Minimum magnitude displayed is 2.5.

Coastal Water Temperatures

Place Temperature
No Stations Reporting

Nearby Weather Stations